Airfield :
LOGIN :

Register | Disclaimer

   EN    FR    IT 

 










Legend :    VFR   Marginal VFR   IFR   Intensive IFR   Very Intensive IFR
Visi :
Ceiling :
>= 8 km
>= 3000ft
5 to 8 km
1000 to 3000 ft
1500m to 5 km
500 to 1000 ft
800 to 1500m
200 to 500 ft
< 800m
< 200 ft
Symbols :   Thunderstorms  Fog  Heavy snow  Heavy precipitations  Wind > 20 kt
SIGMETs :     Misc.  Thunderstorms  Icing  Turbulence  Mountain Waves  Volcanic Ashes







- Airport Elevation : 459 ft
- IATA code : CER
- Download approach charts


LFRC - Cherbourg / Maupertus

CURRENT METAR :
  • 220900Z AUTO 16003KT 9999 FEW022 SCT070 OVC080 12/10 Q1021 TEMPO 3000 RA

EXPIRED METARs :
  • 220830Z AUTO VRB03KT 9999 FEW019 SCT024 BKN032 11/09 Q1021 TEMPO 3000 RA
  • 220800Z AUTO 19009KT 4900 RA BR FEW024/// BKN033/// OVC060/// ///TCU 11/09 Q1021 TEMPO 5000 RA BKN015
  • 220730Z AUTO 19006KT 9999 -RA ///TCU 11/09 Q1021 TEMPO RA BKN015
  • 220700Z AUTO 18003KT 9999 -RA ///TCU 12/09 Q1021 BECMG BKN030
  • 220630Z AUTO 21004KT 9999 -RA FEW045 BKN110 BKN140 11/08 Q1021 NOSIG

TAF TAF LFRC
Valid from the 22 at 09:00 until the 22 at 18:00 UTC


220800Z 2209/2218 21008KT 9999 BKN040
TEMPO 2209/2214 3000 RA BKN015
BECMG 2212/2214 15015G25KT BKN015
TEMPO 2214/2218 3000 RA BKN008
BECMG 2216/2218 21015G30KT
No reported NOTAMs for that airfield.
1 SIGMET reported for the Brest FIR (LFRR) :
 
Severe icing
LFRR SIGMET 1 VALID 220630/221000 LFPW
LFRR BREST FIR/UIR SEV ICE FCST WI N4930 W00445 - N5000 W00200 - N5000 W00015 - N4845 W00015 - N4900 W00400 - N4930 W00445 FL080/200 MOV E 35KT NC=



MET'MAP, your aeronautical weather chart ! - Copyright ORBIFLY December 2007 - Disclaimer

ORBIFLY MET'MAP TEAM :

Programming & Development : Alexandra Zaïnal
Concept & Development : Baudouin d'Aumeries
Co-Development & Prog : Marc-Olivier Méhu
Technical & hardware support : Manuel Goepfert

Contact : metmap@orbifly.com




SOURCES & CREDITS :

   NOAA